sim
Sign-in with your pilot id or email,
or register
Callsign
Passwort

Schedule Details

Flight Number: EWG1787 (3)
Departure: Palma de Mallorca Airport (LEPA) at 19:20
Arrival: Munich Airport (EDDM) at 21:30
Route: Eurowings Passenger Schedule. Enter filed route here before submitting Pirep.

Weather Information
Getting current METAR information for LEPA 231430Z 23010KT 200V260 9999 FEW020 28/22 Q1012 NOSIG
Getting current METAR information for EDDM 231450Z 24007KT 9999 FEW043 19/15 Q1009 NOSIG

Schedule Frequency

Route Map